sensor_id;sensor_type;location;lat;lon;timestamp;pressure;altitude;pressure_sealevel;temperature;humidity
40075;BME280;26529;51.530;11.754;2023-04-25T00:02:17;99229.63;;;21.13;46.53
40075;BME280;26529;51.530;11.754;2023-04-25T00:04:43;99227.94;;;21.12;46.48
40075;BME280;26529;51.530;11.754;2023-04-25T00:07:08;99232.28;;;21.13;46.56
40075;BME280;26529;51.530;11.754;2023-04-25T00:09:34;99230.63;;;21.12;46.55
40075;BME280;26529;51.530;11.754;2023-04-25T00:11:59;99228.94;;;21.11;46.75
40075;BME280;26529;51.530;11.754;2023-04-25T00:14:26;99230.63;;;21.12;46.36
40075;BME280;26529;51.530;11.754;2023-04-25T00:16:53;99234.25;;;21.11;46.50
40075;BME280;26529;51.530;11.754;2023-04-25T00:19:19;99239.59;;;21.11;46.61
40075;BME280;26529;51.530;11.754;2023-04-25T00:21:45;99238.75;;;21.11;46.49
40075;BME280;26529;51.530;11.754;2023-04-25T00:24:12;99234.25;;;21.11;46.58
40075;BME280;26529;51.530;11.754;2023-04-25T00:26:38;99237.91;;;21.10;46.54
40075;BME280;26529;51.530;11.754;2023-04-25T00:29:03;99239.59;;;21.11;46.51
40075;BME280;26529;51.530;11.754;2023-04-25T00:31:29;99239.59;;;21.11;46.49
40075;BME280;26529;51.530;11.754;2023-04-25T00:33:55;99243.25;;;21.10;46.57
40075;BME280;26529;51.530;11.754;2023-04-25T00:36:21;99245.91;;;21.10;46.49
40075;BME280;26529;51.530;11.754;2023-04-25T00:38:47;99244.06;;;21.11;46.44
40075;BME280;26529;51.530;11.754;2023-04-25T00:41:13;99248.56;;;21.10;46.50
40075;BME280;26529;51.530;11.754;2023-04-25T00:43:39;99241.53;;;21.09;46.47
40075;BME280;26529;51.530;11.754;2023-04-25T00:46:05;99253.91;;;21.10;46.43
40075;BME280;26529;51.530;11.754;2023-04-25T00:48:30;99247.72;;;21.10;46.51
40075;BME280;26529;51.530;11.754;2023-04-25T00:50:59;99247.72;;;21.10;46.44
40075;BME280;26529;51.530;11.754;2023-04-25T00:53:27;99252.34;;;21.08;46.48
40075;BME280;26529;51.530;11.754;2023-04-25T00:55:54;99251.38;;;21.09;46.43
40075;BME280;26529;51.530;11.754;2023-04-25T00:58:21;99247.84;;;21.08;46.48
40075;BME280;26529;51.530;11.754;2023-04-25T01:00:49;99248.84;;;21.07;46.42
40075;BME280;26529;51.530;11.754;2023-04-25T01:03:16;99246.88;;;21.09;46.47
40075;BME280;26529;51.530;11.754;2023-04-25T01:05:43;99247.84;;;21.08;46.54
40075;BME280;26529;51.530;11.754;2023-04-25T01:08:09;99249.69;;;21.08;46.38
40075;BME280;26529;51.530;11.754;2023-04-25T01:10:35;99247.16;;;21.06;46.47
40075;BME280;26529;51.530;11.754;2023-04-25T01:13:01;99240.84;;;21.07;46.29
40075;BME280;26529;51.530;11.754;2023-04-25T01:15:29;99240.13;;;21.05;46.53
40075;BME280;26529;51.530;11.754;2023-04-25T01:17:56;99247.16;;;21.06;46.46
40075;BME280;26529;51.530;11.754;2023-04-25T01:20:34;99246.16;;;21.07;46.31
40075;BME280;26529;51.530;11.754;2023-04-25T01:23:02;99243.50;;;21.07;46.41
40075;BME280;26529;51.530;11.754;2023-04-25T01:25:32;99241.81;;;21.06;46.46
40075;BME280;26529;51.530;11.754;2023-04-25T01:27:58;99240.97;;;21.06;46.58
40075;BME280;26529;51.530;11.754;2023-04-25T01:30:26;99240.13;;;21.05;46.40
40075;BME280;26529;51.530;11.754;2023-04-25T01:32:55;99247.28;;;21.05;46.53
40075;BME280;26529;51.530;11.754;2023-04-25T01:35:21;99240.97;;;21.06;46.45
40075;BME280;26529;51.530;11.754;2023-04-25T01:37:52;99243.78;;;21.04;46.33
40075;BME280;26529;51.530;11.754;2023-04-25T01:40:18;99237.59;;;21.04;46.33
40075;BME280;26529;51.530;11.754;2023-04-25T01:42:45;99242.09;;;21.03;46.51
40075;BME280;26529;51.530;11.754;2023-04-25T01:45:11;99248.25;;;21.04;46.50
40075;BME280;26529;51.530;11.754;2023-04-25T01:47:38;99246.44;;;21.04;46.43
40075;BME280;26529;51.530;11.754;2023-04-25T01:50:07;99253.59;;;21.04;46.41
40075;BME280;26529;51.530;11.754;2023-04-25T01:52:33;99256.13;;;21.05;46.43
40075;BME280;26529;51.530;11.754;2023-04-25T01:55:02;99256.38;;;21.02;46.53
40075;BME280;26529;51.530;11.754;2023-04-25T01:57:31;99252.03;;;21.01;46.39
40075;BME280;26529;51.530;11.754;2023-04-25T01:59:59;99250.22;;;21.01;46.45
40075;BME280;26529;51.530;11.754;2023-04-25T02:02:41;99257.22;;;21.03;46.47
40075;BME280;26529;51.530;11.754;2023-04-25T02:05:26;99257.38;;;21.01;46.45
40075;BME280;26529;51.530;11.754;2023-04-25T02:07:52;99260.03;;;21.01;46.41
40075;BME280;26529;51.530;11.754;2023-04-25T02:10:17;99262.69;;;21.01;46.38
40075;BME280;26529;51.530;11.754;2023-04-25T02:12:54;99258.34;;;21.00;46.40
40075;BME280;26529;51.530;11.754;2023-04-25T02:15:28;99261.88;;;21.00;46.46
40075;BME280;26529;51.530;11.754;2023-04-25T02:17:57;99253.88;;;21.00;46.32
40075;BME280;26529;51.530;11.754;2023-04-25T02:20:25;99257.50;;;20.99;46.40
40075;BME280;26529;51.530;11.754;2023-04-25T02:22:51;99264.66;;;20.99;46.44
40075;BME280;26529;51.530;11.754;2023-04-25T02:25:18;99256.66;;;20.99;46.46
40075;BME280;26529;51.530;11.754;2023-04-25T02:27:46;99256.66;;;20.99;46.36
40075;BME280;26529;51.530;11.754;2023-04-25T02:30:12;99262.00;;;20.99;46.40
40075;BME280;26529;51.530;11.754;2023-04-25T02:32:39;99260.31;;;20.98;46.35
40075;BME280;26529;51.530;11.754;2023-04-25T02:35:05;99262.00;;;20.99;46.43
40075;BME280;26529;51.530;11.754;2023-04-25T02:37:33;99256.66;;;20.99;46.34
40075;BME280;26529;51.530;11.754;2023-04-25T02:39:59;99255.81;;;20.98;46.37
40075;BME280;26529;51.530;11.754;2023-04-25T02:42:26;99256.66;;;20.99;46.34
40075;BME280;26529;51.530;11.754;2023-04-25T02:44:52;99254.97;;;20.98;46.37
40075;BME280;26529;51.530;11.754;2023-04-25T02:47:17;99253.31;;;20.97;46.32
40075;BME280;26529;51.530;11.754;2023-04-25T02:49:43;99260.31;;;20.98;46.46
40075;BME280;26529;51.530;11.754;2023-04-25T02:52:09;99253.16;;;20.98;46.26
40075;BME280;26529;51.530;11.754;2023-04-25T02:54:35;99256.78;;;20.97;46.38
40075;BME280;26529;51.530;11.754;2023-04-25T02:57:02;99254.97;;;20.98;46.37
40075;BME280;26529;51.530;11.754;2023-04-25T02:59:33;99246.25;;;20.96;46.39
40075;BME280;26529;51.530;11.754;2023-04-25T03:01:59;99248.91;;;20.96;46.29
40075;BME280;26529;51.530;11.754;2023-04-25T03:04:25;99243.59;;;20.96;46.31
40075;BME280;26529;51.530;11.754;2023-04-25T03:06:50;99243.59;;;20.96;46.23
40075;BME280;26529;51.530;11.754;2023-04-25T03:09:19;99238.25;;;20.96;46.26
40075;BME280;26529;51.530;11.754;2023-04-25T03:11:46;99240.09;;;20.95;46.30
40075;BME280;26529;51.530;11.754;2023-04-25T03:14:12;99242.63;;;20.97;46.40
40075;BME280;26529;51.530;11.754;2023-04-25T03:16:38;99235.59;;;20.96;46.16
40075;BME280;26529;51.530;11.754;2023-04-25T03:19:04;99237.56;;;20.94;46.33
40075;BME280;26529;51.530;11.754;2023-04-25T03:21:32;99239.25;;;20.95;46.33
40075;BME280;26529;51.530;11.754;2023-04-25T03:23:58;99231.41;;;20.93;46.33
40075;BME280;26529;51.530;11.754;2023-04-25T03:26:24;99232.22;;;20.94;46.44
40075;BME280;26529;51.530;11.754;2023-04-25T03:28:50;99233.22;;;20.93;46.40
40075;BME280;26529;51.530;11.754;2023-04-25T03:31:15;99231.41;;;20.93;46.37
40075;BME280;26529;51.530;11.754;2023-04-25T03:33:41;99232.22;;;20.94;46.22
40075;BME280;26529;51.530;11.754;2023-04-25T03:36:07;99235.88;;;20.93;46.11
40075;BME280;26529;51.530;11.754;2023-04-25T03:38:33;99235.03;;;20.92;46.41
40075;BME280;26529;51.530;11.754;2023-04-25T03:40:58;99235.88;;;20.93;46.37
40075;BME280;26529;51.530;11.754;2023-04-25T03:43:38;99236.75;;;20.93;46.40
40075;BME280;26529;51.530;11.754;2023-04-25T03:46:09;99238.53;;;20.93;46.33
40075;BME280;26529;51.530;11.754;2023-04-25T03:48:34;99238.69;;;20.91;46.32
40075;BME280;26529;51.530;11.754;2023-04-25T03:51:00;99235.88;;;20.93;46.30
40075;BME280;26529;51.530;11.754;2023-04-25T03:53:40;99245.84;;;20.91;46.33
40075;BME280;26529;51.530;11.754;2023-04-25T03:56:45;99241.22;;;20.93;46.20
40075;BME280;26529;51.530;11.754;2023-04-25T03:59:33;99247.66;;;20.90;46.32
40075;BME280;26529;51.530;11.754;2023-04-25T04:02:10;99246.53;;;20.93;46.34
40075;BME280;26529;51.530;11.754;2023-04-25T04:04:36;99244.84;;;20.92;46.25
40075;BME280;26529;51.530;11.754;2023-04-25T04:07:02;99249.34;;;20.91;46.35
40075;BME280;26529;51.530;11.754;2023-04-25T04:09:32;99253.84;;;20.91;46.41
40075;BME280;26529;51.530;11.754;2023-04-25T04:12:01;99249.50;;;20.90;46.24
40075;BME280;26529;51.530;11.754;2023-04-25T04:14:29;99250.19;;;20.92;46.37
40075;BME280;26529;51.530;11.754;2023-04-25T04:16:54;99253.84;;;20.91;46.24
40075;BME280;26529;51.530;11.754;2023-04-25T04:19:21;99252.97;;;20.90;46.31
40075;BME280;26529;51.530;11.754;2023-04-25T04:21:54;99254.81;;;20.90;46.22
40075;BME280;26529;51.530;11.754;2023-04-25T04:24:20;99246.81;;;20.90;46.33
40075;BME280;26529;51.530;11.754;2023-04-25T04:26:51;99255.66;;;20.90;46.30
40075;BME280;26529;51.530;11.754;2023-04-25T04:29:43;99252.16;;;20.90;46.36
40075;BME280;26529;51.530;11.754;2023-04-25T04:32:14;99257.47;;;20.90;46.24
40075;BME280;26529;51.530;11.754;2023-04-25T04:34:41;99257.47;;;20.90;46.28
40075;BME280;26529;51.530;11.754;2023-04-25T04:37:07;99260.16;;;20.90;46.23
40075;BME280;26529;51.530;11.754;2023-04-25T04:39:33;99262.81;;;20.90;46.26
40075;BME280;26529;51.530;11.754;2023-04-25T04:42:05;99263.75;;;20.88;46.29
40075;BME280;26529;51.530;11.754;2023-04-25T04:44:53;99270.94;;;20.88;46.19
40075;BME280;26529;51.530;11.754;2023-04-25T04:47:39;99265.59;;;20.88;46.25
40075;BME280;26529;51.530;11.754;2023-04-25T04:50:15;99265.72;;;20.86;46.22
40075;BME280;26529;51.530;11.754;2023-04-25T04:53:01;99271.75;;;20.88;46.32
40075;BME280;26529;51.530;11.754;2023-04-25T04:55:46;99266.44;;;20.88;46.21
40075;BME280;26529;51.530;11.754;2023-04-25T04:58:23;99277.09;;;20.88;46.19
40075;BME280;26529;51.530;11.754;2023-04-25T05:01:09;99274.41;;;20.88;46.19
40075;BME280;26529;51.530;11.754;2023-04-25T05:03:54;99271.75;;;20.88;46.25
40075;BME280;26529;51.530;11.754;2023-04-25T05:06:42;99271.06;;;20.86;46.14
40075;BME280;26529;51.530;11.754;2023-04-25T05:09:26;99273.72;;;20.86;46.32
40075;BME280;26529;51.530;11.754;2023-04-25T05:12:06;99267.41;;;20.87;46.25
40075;BME280;26529;51.530;11.754;2023-04-25T05:14:50;99270.94;;;20.88;46.30
40075;BME280;26529;51.530;11.754;2023-04-25T05:17:32;99275.16;;;20.91;46.23
40075;BME280;26529;51.530;11.754;2023-04-25T05:20:22;99274.16;;;20.92;46.42
40075;BME280;26529;51.530;11.754;2023-04-25T05:23:04;99277.66;;;20.92;46.31
40075;BME280;26529;51.530;11.754;2023-04-25T05:25:42;99280.19;;;20.94;46.46
40075;BME280;26529;51.530;11.754;2023-04-25T05:28:26;99281.88;;;20.95;46.39
40075;BME280;26529;51.530;11.754;2023-04-25T05:31:10;99284.53;;;20.95;46.38
40075;BME280;26529;51.530;11.754;2023-04-25T05:33:57;99280.91;;;20.96;46.51
40075;BME280;26529;51.530;11.754;2023-04-25T05:36:27;99283.56;;;20.96;46.58
40075;BME280;26529;51.530;11.754;2023-04-25T05:38:53;99275.56;;;20.96;46.35
40075;BME280;26529;51.530;11.754;2023-04-25T05:41:19;99278.22;;;20.96;46.65
40075;BME280;26529;51.530;11.754;2023-04-25T05:43:49;99284.69;;;20.72;44.33
40075;BME280;26529;51.530;11.754;2023-04-25T05:46:25;99292.19;;;20.14;42.54
40075;BME280;26529;51.530;11.754;2023-04-25T05:49:06;99291.41;;;19.79;41.87
40075;BME280;26529;51.530;11.754;2023-04-25T05:51:52;99289.91;;;19.65;41.54
40075;BME280;26529;51.530;11.754;2023-04-25T05:54:47;99293.78;;;19.61;40.60
40075;BME280;26529;51.530;11.754;2023-04-25T05:57:26;99307.09;;;19.50;39.62
40075;BME280;26529;51.530;11.754;2023-04-25T05:59:54;99306.00;;;19.41;40.11
40075;BME280;26529;51.530;11.754;2023-04-25T06:02:21;99307.56;;;19.44;39.56
40075;BME280;26529;51.530;11.754;2023-04-25T06:04:50;99304.84;;;19.22;39.68
40075;BME280;26529;51.530;11.754;2023-04-25T06:07:17;99309.66;;;19.17;39.47
40075;BME280;26529;51.530;11.754;2023-04-25T06:09:43;99302.19;;;19.11;39.33
40075;BME280;26529;51.530;11.754;2023-04-25T06:12:09;99309.13;;;19.01;39.15
40075;BME280;26529;51.530;11.754;2023-04-25T06:14:34;99304.44;;;18.93;39.23
40075;BME280;26529;51.530;11.754;2023-04-25T06:17:00;99320.38;;;18.93;39.03
40075;BME280;26529;51.530;11.754;2023-04-25T06:19:35;99313.19;;;17.13;38.91
40075;BME280;26529;51.530;11.754;2023-04-25T06:22:01;99320.53;;;16.55;38.69
40075;BME280;26529;51.530;11.754;2023-04-25T06:24:28;99320.09;;;16.36;38.20
40075;BME280;26529;51.530;11.754;2023-04-25T06:26:54;99318.31;;;16.09;38.37
40075;BME280;26529;51.530;11.754;2023-04-25T06:29:20;99318.13;;;15.28;39.28
40075;BME280;26529;51.530;11.754;2023-04-25T06:31:46;99315.78;;;16.07;37.75
40075;BME280;26529;51.530;11.754;2023-04-25T06:34:12;99316.81;;;16.05;37.70
40075;BME280;26529;51.530;11.754;2023-04-25T06:36:39;99307.06;;;15.50;37.94
40075;BME280;26529;51.530;11.754;2023-04-25T06:39:08;99307.97;;;15.64;37.93
40075;BME280;26529;51.530;11.754;2023-04-25T06:41:34;99322.91;;;15.50;38.03
40075;BME280;26529;51.530;11.754;2023-04-25T06:44:04;99320.97;;;15.10;38.71
40075;BME280;26529;51.530;11.754;2023-04-25T06:46:38;99315.81;;;15.51;38.16
40075;BME280;26529;51.530;11.754;2023-04-25T06:49:04;99323.78;;;15.36;38.35
40075;BME280;26529;51.530;11.754;2023-04-25T06:51:30;99318.31;;;15.39;38.54
40075;BME280;26529;51.530;11.754;2023-04-25T06:53:56;99322.44;;;15.43;38.17
40075;BME280;26529;51.530;11.754;2023-04-25T07:00:36;99313.53;;;14.88;39.18
40075;BME280;26529;51.530;11.754;2023-04-25T07:03:02;99320.84;;;14.37;39.69
40075;BME280;26529;51.530;11.754;2023-04-25T07:05:27;99322.84;;;15.08;39.45
40075;BME280;26529;51.530;11.754;2023-04-25T07:07:53;99327.06;;;15.96;38.81
40075;BME280;26529;51.530;11.754;2023-04-25T07:10:19;99335.56;;;16.42;38.68
40075;BME280;26529;51.530;11.754;2023-04-25T07:12:46;99339.19;;;16.67;38.59
40075;BME280;26529;51.530;11.754;2023-04-25T07:15:12;99346.72;;;16.86;38.41
40075;BME280;26529;51.530;11.754;2023-04-25T07:17:40;99351.84;;;17.02;38.63
40075;BME280;26529;51.530;11.754;2023-04-25T07:20:06;99350.97;;;17.15;38.55
40075;BME280;26529;51.530;11.754;2023-04-25T07:22:34;99352.03;;;17.25;38.76
40075;BME280;26529;51.530;11.754;2023-04-25T07:24:59;99349.47;;;17.36;39.04
40075;BME280;26529;51.530;11.754;2023-04-25T07:27:28;99350.63;;;17.45;39.30
40075;BME280;26529;51.530;11.754;2023-04-25T07:29:59;99353.47;;;17.55;39.25
40075;BME280;26529;51.530;11.754;2023-04-25T07:32:25;99353.75;;;17.63;38.95
40075;BME280;26529;51.530;11.754;2023-04-25T07:34:51;99357.56;;;17.72;39.16
40075;BME280;26529;51.530;11.754;2023-04-25T07:37:17;99359.53;;;17.82;39.32
40075;BME280;26529;51.530;11.754;2023-04-25T07:39:57;99362.59;;;17.88;39.50
40075;BME280;26529;51.530;11.754;2023-04-25T07:42:23;99362.00;;;17.96;39.41
40075;BME280;26529;51.530;11.754;2023-04-25T07:44:50;99372.06;;;18.04;39.41
40075;BME280;26529;51.530;11.754;2023-04-25T07:47:17;99373.34;;;18.11;39.33
40075;BME280;26529;51.530;11.754;2023-04-25T07:49:44;99378.19;;;18.17;39.35
40075;BME280;26529;51.530;11.754;2023-04-25T07:52:12;99378.59;;;18.24;39.52
40075;BME280;26529;51.530;11.754;2023-04-25T07:54:42;99375.50;;;18.30;39.86
40075;BME280;26529;51.530;11.754;2023-04-25T07:57:14;99382.16;;;18.36;39.81
40075;BME280;26529;51.530;11.754;2023-04-25T07:59:40;99378.19;;;18.42;39.82
40075;BME280;26529;51.530;11.754;2023-04-25T08:02:05;99379.56;;;18.48;40.00
40075;BME280;26529;51.530;11.754;2023-04-25T08:04:31;99382.69;;;18.53;40.15
40075;BME280;26529;51.530;11.754;2023-04-25T08:07:01;99385.00;;;18.57;40.40
40075;BME280;26529;51.530;11.754;2023-04-25T08:09:30;99388.16;;;18.63;40.29
40075;BME280;26529;51.530;11.754;2023-04-25T08:12:03;99393.25;;;18.66;40.76
40075;BME280;26529;51.530;11.754;2023-04-25T08:14:31;99397.47;;;18.68;40.76
40075;BME280;26529;51.530;11.754;2023-04-25T08:17:03;99395.44;;;18.72;40.87
40075;BME280;26529;51.530;11.754;2023-04-25T08:19:29;99399.66;;;18.75;40.98
40075;BME280;26529;51.530;11.754;2023-04-25T08:21:56;99409.06;;;18.79;41.03
40075;BME280;26529;51.530;11.754;2023-04-25T08:24:28;99404.50;;;18.81;41.00
40075;BME280;26529;51.530;11.754;2023-04-25T08:26:54;99402.47;;;18.84;41.42
40075;BME280;26529;51.530;11.754;2023-04-25T08:29:22;99405.75;;;18.88;41.15
40075;BME280;26529;51.530;11.754;2023-04-25T08:31:49;99409.94;;;18.91;41.14
40075;BME280;26529;51.530;11.754;2023-04-25T08:34:16;99407.94;;;18.94;41.14
40075;BME280;26529;51.530;11.754;2023-04-25T08:36:47;99413.84;;;18.98;41.05
40075;BME280;26529;51.530;11.754;2023-04-25T08:39:19;99421.56;;;19.01;41.15
40075;BME280;26529;51.530;11.754;2023-04-25T08:42:06;99414.25;;;19.05;41.19
40075;BME280;26529;51.530;11.754;2023-04-25T08:44:36;99417.63;;;19.07;41.22
40075;BME280;26529;51.530;11.754;2023-04-25T08:47:05;99433.34;;;19.10;41.23
40075;BME280;26529;51.530;11.754;2023-04-25T08:49:35;99438.53;;;19.11;41.19
40075;BME280;26529;51.530;11.754;2023-04-25T08:52:02;99434.78;;;19.14;41.43
40075;BME280;26529;51.530;11.754;2023-04-25T08:54:31;99432.88;;;19.16;41.54
40075;BME280;26529;51.530;11.754;2023-04-25T08:56:57;99443.25;;;19.19;41.41
40075;BME280;26529;51.530;11.754;2023-04-25T08:59:27;99445.81;;;19.21;41.44
40075;BME280;26529;51.530;11.754;2023-04-25T09:01:54;99444.72;;;19.23;41.61
40075;BME280;26529;51.530;11.754;2023-04-25T09:04:21;99447.13;;;19.27;41.52
40075;BME280;26529;51.530;11.754;2023-04-25T09:06:47;99454.03;;;19.29;41.80
40075;BME280;26529;51.530;11.754;2023-04-25T09:09:13;99456.31;;;19.34;41.93
40075;BME280;26529;51.530;11.754;2023-04-25T09:11:39;99447.41;;;19.35;41.99
40075;BME280;26529;51.530;11.754;2023-04-25T09:14:20;99457.78;;;19.38;41.90
40075;BME280;26529;51.530;11.754;2023-04-25T09:17:00;99455.00;;;19.39;41.89
40075;BME280;26529;51.530;11.754;2023-04-25T09:19:41;99448.72;;;19.41;41.90
40075;BME280;26529;51.530;11.754;2023-04-25T09:22:17;99460.94;;;19.43;41.99
40075;BME280;26529;51.530;11.754;2023-04-25T09:24:44;99459.97;;;19.44;42.03
40075;BME280;26529;51.530;11.754;2023-04-25T09:27:13;99476.63;;;19.46;42.02
40075;BME280;26529;51.530;11.754;2023-04-25T09:29:43;99471.22;;;19.48;42.10
40075;BME280;26529;51.530;11.754;2023-04-25T09:34:43;99488.75;;;19.50;42.09
40075;BME280;26529;51.530;11.754;2023-04-25T09:37:10;99482.44;;;19.51;42.20
40075;BME280;26529;51.530;11.754;2023-04-25T09:40:00;99483.16;;;19.53;42.27
40075;BME280;26529;51.530;11.754;2023-04-25T09:42:32;99492.00;;;19.54;42.24
40075;BME280;26529;51.530;11.754;2023-04-25T09:45:00;99489.22;;;19.56;42.31
40075;BME280;26529;51.530;11.754;2023-04-25T09:47:37;99493.56;;;19.57;42.33
40075;BME280;26529;51.530;11.754;2023-04-25T09:50:14;99496.97;;;19.59;42.44
40075;BME280;26529;51.530;11.754;2023-04-25T09:52:41;99501.31;;;19.60;42.36
40075;BME280;26529;51.530;11.754;2023-04-25T09:55:13;99505.66;;;19.61;42.53
40075;BME280;26529;51.530;11.754;2023-04-25T09:57:39;99502.06;;;19.62;42.34
40075;BME280;26529;51.530;11.754;2023-04-25T10:00:07;99501.09;;;19.63;42.54
40075;BME280;26529;51.530;11.754;2023-04-25T10:02:42;99505.44;;;19.64;42.57
40075;BME280;26529;51.530;11.754;2023-04-25T10:05:25;99505.44;;;19.64;42.62
40075;BME280;26529;51.530;11.754;2023-04-25T10:07:53;99514.13;;;19.66;42.63
40075;BME280;26529;51.530;11.754;2023-04-25T10:10:20;99515.81;;;19.67;42.75
40075;BME280;26529;51.530;11.754;2023-04-25T10:12:51;99518.34;;;19.69;42.64
40075;BME280;26529;51.530;11.754;2023-04-25T10:15:17;99517.50;;;19.68;42.82
40075;BME280;26529;51.530;11.754;2023-04-25T10:17:43;99532.53;;;19.69;42.71
40075;BME280;26529;51.530;11.754;2023-04-25T10:20:09;99538.56;;;19.71;42.73
40075;BME280;26529;51.530;11.754;2023-04-25T10:22:38;99540.25;;;19.72;42.93
40075;BME280;26529;51.530;11.754;2023-04-25T10:25:06;99529.59;;;19.72;42.89
40075;BME280;26529;51.530;11.754;2023-04-25T10:27:34;99538.31;;;19.74;42.87
40075;BME280;26529;51.530;11.754;2023-04-25T10:30:03;99535.53;;;19.76;42.79
40075;BME280;26529;51.530;11.754;2023-04-25T10:32:32;99525.75;;;19.76;42.97
40075;BME280;26529;51.530;11.754;2023-04-25T10:35:10;99535.41;;;19.77;42.87
40075;BME280;26529;51.530;11.754;2023-04-25T10:37:35;99533.47;;;19.79;42.84
40075;BME280;26529;51.530;11.754;2023-04-25T10:40:08;99538.69;;;19.81;43.05
40075;BME280;26529;51.530;11.754;2023-04-25T10:42:35;99532.41;;;19.82;42.91
40075;BME280;26529;51.530;11.754;2023-04-25T10:45:09;99536.75;;;19.83;42.93
40075;BME280;26529;51.530;11.754;2023-04-25T10:47:36;99526.97;;;19.84;42.94
40075;BME280;26529;51.530;11.754;2023-04-25T10:50:06;99529.50;;;19.85;42.98
40075;BME280;26529;51.530;11.754;2023-04-25T10:52:33;99530.34;;;19.86;42.89
40075;BME280;26529;51.530;11.754;2023-04-25T10:54:58;99525.00;;;19.86;42.91
40075;BME280;26529;51.530;11.754;2023-04-25T11:00:08;99529.25;;;19.88;43.03
40075;BME280;26529;51.530;11.754;2023-04-25T11:02:59;99529.13;;;19.90;43.18
40075;BME280;26529;51.530;11.754;2023-04-25T11:05:35;99528.16;;;19.91;43.03
40075;BME280;26529;51.530;11.754;2023-04-25T11:08:02;99528.16;;;19.91;43.04
40075;BME280;26529;51.530;11.754;2023-04-25T11:10:32;99529.84;;;19.92;43.20
40075;BME280;26529;51.530;11.754;2023-04-25T11:13:00;99529.00;;;19.91;43.22
40075;BME280;26529;51.530;11.754;2023-04-25T11:15:27;99531.53;;;19.93;43.28
40075;BME280;26529;51.530;11.754;2023-04-25T11:17:53;99520.41;;;19.88;42.73
40075;BME280;26529;51.530;11.754;2023-04-25T11:20:19;99523.31;;;19.85;42.44
40075;BME280;26529;51.530;11.754;2023-04-25T11:22:46;99523.31;;;19.85;42.57
40075;BME280;26529;51.530;11.754;2023-04-25T11:25:13;99516.06;;;19.87;42.66
40075;BME280;26529;51.530;11.754;2023-04-25T11:27:49;99521.16;;;19.90;42.57
40075;BME280;26529;51.530;11.754;2023-04-25T11:30:15;99522.00;;;19.90;42.73
40075;BME280;26529;51.530;11.754;2023-04-25T11:32:42;99520.19;;;19.91;42.91
40075;BME280;26529;51.530;11.754;2023-04-25T11:35:09;99529.84;;;19.92;42.66
40075;BME280;26529;51.530;11.754;2023-04-25T11:37:35;99536.97;;;19.91;42.88
40075;BME280;26529;51.530;11.754;2023-04-25T11:40:03;99532.53;;;19.92;42.97
40075;BME280;26529;51.530;11.754;2023-04-25T11:42:29;99536.88;;;19.93;43.00
40075;BME280;26529;51.530;11.754;2023-04-25T11:44:55;99541.22;;;19.94;43.00
40075;BME280;26529;51.530;11.754;2023-04-25T11:47:28;99537.63;;;19.95;42.94
40075;BME280;26529;51.530;11.754;2023-04-25T11:49:53;99543.78;;;19.96;43.06
40075;BME280;26529;51.530;11.754;2023-04-25T11:52:19;99549.00;;;19.97;43.04
40075;BME280;26529;51.530;11.754;2023-04-25T11:54:44;99543.69;;;19.97;42.94
40075;BME280;26529;51.530;11.754;2023-04-25T11:57:11;99550.69;;;19.98;42.98
40075;BME280;26529;51.530;11.754;2023-04-25T11:59:36;99547.06;;;19.99;43.00
40075;BME280;26529;51.530;11.754;2023-04-25T12:02:02;99553.09;;;20.01;43.00
40075;BME280;26529;51.530;11.754;2023-04-25T12:04:30;99544.03;;;20.04;43.12
40075;BME280;26529;51.530;11.754;2023-04-25T12:06:55;99553.38;;;20.10;43.20
40075;BME280;26529;51.530;11.754;2023-04-25T12:09:29;99549.47;;;20.14;43.44
40075;BME280;26529;51.530;11.754;2023-04-25T12:11:56;99547.56;;;20.16;43.16
40075;BME280;26529;51.530;11.754;2023-04-25T12:14:31;99545.84;;;20.15;43.41
40075;BME280;26529;51.530;11.754;2023-04-25T12:16:58;99547.66;;;20.14;43.32
40075;BME280;26529;51.530;11.754;2023-04-25T12:19:25;99554.78;;;20.14;43.43
40075;BME280;26529;51.530;11.754;2023-04-25T12:21:51;99565.44;;;20.14;43.37
40075;BME280;26529;51.530;11.754;2023-04-25T12:24:21;99563.75;;;20.13;43.46
40075;BME280;26529;51.530;11.754;2023-04-25T12:26:53;99578.03;;;20.12;43.43
40075;BME280;26529;51.530;11.754;2023-04-25T12:29:25;99579.72;;;20.13;43.55
40075;BME280;26529;51.530;11.754;2023-04-25T12:31:52;99585.03;;;20.13;43.35
40075;BME280;26529;51.530;11.754;2023-04-25T12:34:19;99578.03;;;20.12;43.34
40075;BME280;26529;51.530;11.754;2023-04-25T12:36:45;99587.81;;;20.11;43.33
40075;BME280;26529;51.530;11.754;2023-04-25T12:39:18;99585.03;;;20.13;43.62
40075;BME280;26529;51.530;11.754;2023-04-25T12:41:45;99581.41;;;20.14;43.54
40075;BME280;26529;51.530;11.754;2023-04-25T12:44:12;99589.28;;;20.15;43.51
40075;BME280;26529;51.530;11.754;2023-04-25T12:46:37;99595.22;;;20.19;43.60
40075;BME280;26529;51.530;11.754;2023-04-25T12:49:03;99590.84;;;20.18;43.41
40075;BME280;26529;51.530;11.754;2023-04-25T12:51:30;99588.09;;;20.19;43.62
40075;BME280;26529;51.530;11.754;2023-04-25T12:53:55;99592.28;;;20.22;43.46
40075;BME280;26529;51.530;11.754;2023-04-25T12:56:21;99596.66;;;20.23;43.78
40075;BME280;26529;51.530;11.754;2023-04-25T12:58:46;99600.03;;;20.25;43.76
40075;BME280;26529;51.530;11.754;2023-04-25T13:01:14;99596.41;;;20.26;43.77
40075;BME280;26529;51.530;11.754;2023-04-25T13:03:40;99592.78;;;20.27;43.74
40075;BME280;26529;51.530;11.754;2023-04-25T13:06:06;99589.16;;;20.28;43.81
40075;BME280;26529;51.530;11.754;2023-04-25T13:08:32;99604.19;;;20.29;43.82
40075;BME280;26529;51.530;11.754;2023-04-25T13:10:57;99602.34;;;20.30;43.92
40075;BME280;26529;51.530;11.754;2023-04-25T13:13:23;99595.94;;;20.32;43.67